Roanoke, VA (24018)

6:36 PM EDT on September 03, 2015 (GMT -0400)
Cresthill | | Change Station
CLOSE
Current Station
Personal Weather Station
Location: Cave Spring, VA
Elevation: 1180 ft
Nearby Weather Stations

Elev 1180 ft 37.24 °N, 80.02 °W | Updated 19 seconds ago

Partly Cloudy
Partly Cloudy
85.5 °F
Feels Like 86 °F
N
0.0
Wind Variable Wind from ENE
Gusts 0.0 mph

Today
High -- | Low -- °F
--% Chance of Precip.
Yesterday
High -- | Low -- °F
Precip. -- in
6:52 AM 7:46 PM
Waning Gibbous, 66% visible
Pressure 29.91 in
Visibility 10.0 miles
Clouds Few 6000 ft
Few 15000 ft
Heat Index 86 °F
Dew Point 63 °F
Humidity 47%
Rainfall 0.00 in
Snow Depth Not available.
UV 1.0 out of 12
Pollen 9.90 out of 12
Air Quality Not available.
Flu Activity Not available.
METAR KROA 032154Z 35010KT 10SM FEW060 FEW150 31/16 A2995 RMK AO2 SLP129 T03110156
Pressure 29.91 in
Visibility 10.0 miles
Clouds Few 6000 ft
Few 15000 ft
Heat Index 86 °F
Dew Point 63 °F
Humidity 47%
Rainfall 0.00 in
Snow Depth Not available.
UV 1.0 out of 12
Pollen 9.90 out of 12
Air Quality Not available.
Flu Activity Not available.
METAR KROA 032154Z 35010KT 10SM FEW060 FEW150 31/16 A2995 RMK AO2 SLP129 T03110156

10-Day Weather Forecast

×

Almanac

Astronomy

Sep. 03, 2015 Rise Set
Actual Time
Civil Twilight
Nautical Twilight
Astronomical Twilight
Moon
Length of Visible Light
Length of Day
Tomorrow will be .
, % of the Moon is Illuminated

Today's Extremes

State Highs State Lows

Community

WunderPhotos

Upload Photos

1,852,049 photos uploaded!

WunderBlogs® & News

Nearby

Air Quality

  Air Quality AQ Index Pollutant
Not available.

Snow Depth

Station Depth Elevation

Earthquake Activity

City Distance Mag. Time & Date
Minimum magnitude displayed is 2.5.

Coastal Water Temperatures

Place Temperature

Stations

Nearby Weather Stations

Station Location Temp. Windchill Dew Point Humidity Wind Precip. Elev Updated Type